Time;durP1;ratioP1;P1;durP2;ratioP2;P2;SDS_P1;SDS_P2;PMS_P1;PMS_P2;Temp;Humidity;BMP_temperature;BMP_pressure;BME280_temperature;BME280_humidity;BME280_pressure;Samples;Min_cycle;Max_cycle;Signal;HPM_P1;HPM_P2
2023/04/03 00:00:46;;;;;;;3.93;1.07;;;;;;;;;;5026490;28;20246;-68
2023/04/03 00:03:11;;;;;;;2.17;1.10;;;;;;;;;;5025531;28;20217;-67
2023/04/03 00:05:37;;;;;;;5.97;1.30;;;;;;;;;;5022764;28;20187;-68
2023/04/03 00:08:04;;;;;;;6.23;1.43;;;;;;;;;;5011369;28;20678;-67
2023/04/03 00:10:30;;;;;;;7.10;1.37;;;;;;;;;;5016497;28;20400;-67
2023/04/03 00:12:55;;;;;;;6.00;1.50;;;;;;;;;;5024798;28;20479;-67
2023/04/03 00:15:21;;;;;;;6.27;1.60;;;;;;;;;;5025615;28;20261;-67
2023/04/03 00:17:46;;;;;;;5.87;1.23;;;;;;;;;;5017146;28;20236;-67
2023/04/03 00:20:12;;;;;;;4.33;1.20;;;;;;;;;;5024417;28;20198;-67
2023/04/03 00:22:37;;;;;;;5.47;1.57;;;;;;;;;;5026079;28;20247;-67
2023/04/03 00:25:03;;;;;;;7.33;1.57;;;;;;;;;;5027292;28;20202;-67
2023/04/03 00:27:28;;;;;;;4.43;1.23;;;;;;;;;;5013877;28;20233;-67
2023/04/03 00:29:54;;;;;;;6.70;1.57;;;;;;;;;;5024291;28;20253;-67
2023/04/03 00:32:19;;;;;;;4.27;1.30;;;;;;;;;;5021105;28;20204;-67
2023/04/03 00:34:45;;;;;;;5.07;1.13;;;;;;;;;;5025943;28;20186;-68
2023/04/03 00:37:10;;;;;;;5.70;1.40;;;;;;;;;;5015824;28;20622;-68
2023/04/03 00:39:36;;;;;;;6.53;1.60;;;;;;;;;;5025990;28;20187;-68
2023/04/03 00:42:01;;;;;;;3.50;1.33;;;;;;;;;;5024478;28;20268;-66
2023/04/03 00:44:32;;;;;;;3.87;1.20;;;;;;;;;;5015256;28;20702;-67
2023/04/03 00:46:58;;;;;;;4.03;1.40;;;;;;;;;;5014912;28;20551;-69
2023/04/03 00:49:23;;;;;;;5.10;1.73;;;;;;;;;;5013784;28;20197;-67
2023/04/03 00:51:49;;;;;;;6.83;1.50;;;;;;;;;;5015099;28;20182;-68
2023/04/03 00:54:15;;;;;;;5.93;1.83;;;;;;;;;;5023692;28;20297;-67
2023/04/03 00:56:41;;;;;;;3.53;1.30;;;;;;;;;;5025120;28;20221;-67
2023/04/03 00:59:12;;;;;;;7.37;1.83;;;;;;;;;;5031077;28;20190;-68
2023/04/03 01:01:37;;;;;;;3.67;1.47;;;;;;;;;;5027813;28;20572;-68
2023/04/03 01:04:05;;;;;;;5.37;1.30;;;;;;;;;;5026785;28;20469;-68
2023/04/03 01:06:35;;;;;;;8.30;1.80;;;;;;;;;;5026169;28;20182;-67
2023/04/03 01:09:01;;;;;;;7.20;1.43;;;;;;;;;;5025332;28;20646;-68
2023/04/03 01:11:26;;;;;;;6.20;1.53;;;;;;;;;;5025677;28;20186;-67
2023/04/03 01:13:52;;;;;;;4.20;1.10;;;;;;;;;;5023745;28;20681;-68
2023/04/03 01:16:18;;;;;;;3.63;1.27;;;;;;;;;;5014773;28;20210;-68
2023/04/03 01:18:44;;;;;;;8.57;1.57;;;;;;;;;;5026048;28;20194;-68
2023/04/03 01:21:25;;;;;;;4.90;1.53;;;;;;;;;;5025577;28;20462;-68
2023/04/03 01:24:10;;;;;;;4.83;1.50;;;;;;;;;;5030889;28;20544;-68
2023/04/03 01:26:35;;;;;;;3.37;1.10;;;;;;;;;;5018464;28;20278;-68
2023/04/03 01:29:01;;;;;;;7.53;1.80;;;;;;;;;;5027753;28;20328;-68
2023/04/03 01:31:49;;;;;;;3.10;1.40;;;;;;;;;;5029095;28;20651;-67
2023/04/03 01:34:15;;;;;;;4.03;1.60;;;;;;;;;;5015571;28;20892;-68
2023/04/03 01:36:40;;;;;;;8.37;1.77;;;;;;;;;;5030181;28;20210;-67
2023/04/03 01:39:06;;;;;;;9.87;1.90;;;;;;;;;;5022271;28;20252;-67
2023/04/03 01:41:32;;;;;;;4.13;1.50;;;;;;;;;;5025096;28;20217;-67
2023/04/03 01:43:58;;;;;;;5.20;1.77;;;;;;;;;;5030453;28;20679;-67
2023/04/03 01:46:23;;;;;;;8.13;1.50;;;;;;;;;;5029392;28;20194;-67
2023/04/03 01:48:49;;;;;;;5.20;2.17;;;;;;;;;;5028615;28;20190;-67
2023/04/03 01:51:15;;;;;;;7.73;1.73;;;;;;;;;;5027279;28;20568;-68
2023/04/03 01:53:40;;;;;;;4.23;1.37;;;;;;;;;;5015011;28;20190;-68
2023/04/03 01:56:06;;;;;;;4.93;1.37;;;;;;;;;;5027841;28;20844;-68
2023/04/03 01:58:31;;;;;;;4.20;1.50;;;;;;;;;;5023571;28;20306;-66
2023/04/03 02:00:56;;;;;;;6.00;1.60;;;;;;;;;;5027825;28;20308;-68
2023/04/03 02:03:22;;;;;;;5.23;1.83;;;;;;;;;;5021940;28;20612;-68
2023/04/03 02:05:47;;;;;;;4.27;1.23;;;;;;;;;;5027189;28;20221;-67
2023/04/03 02:08:13;;;;;;;7.53;1.83;;;;;;;;;;5029258;28;20241;-67
2023/04/03 02:10:39;;;;;;;6.40;1.47;;;;;;;;;;5028549;28;20700;-68
2023/04/03 02:13:04;;;;;;;5.67;1.37;;;;;;;;;;5029289;28;20198;-67
2023/04/03 02:15:30;;;;;;;7.93;1.50;;;;;;;;;;5023977;28;20199;-68
2023/04/03 02:17:55;;;;;;;6.10;1.40;;;;;;;;;;5027681;28;20522;-68
2023/04/03 02:20:21;;;;;;;7.97;1.60;;;;;;;;;;5026929;28;20773;-67
2023/04/03 02:22:46;;;;;;;7.03;1.87;;;;;;;;;;5016084;28;20240;-67
2023/04/03 02:25:12;;;;;;;7.93;2.20;;;;;;;;;;5029946;28;20198;-67
2023/04/03 02:27:38;;;;;;;10.80;1.93;;;;;;;;;;5016829;28;20197;-67
2023/04/03 02:30:05;;;;;;;4.60;1.60;;;;;;;;;;5020424;28;20234;-67
2023/04/03 02:32:30;;;;;;;7.70;1.70;;;;;;;;;;5019039;28;20190;-67
2023/04/03 02:34:55;;;;;;;5.43;1.60;;;;;;;;;;5013150;28;20554;-67
2023/04/03 02:37:21;;;;;;;7.20;1.80;;;;;;;;;;5025681;28;20214;-68
2023/04/03 02:39:46;;;;;;;4.43;1.60;;;;;;;;;;5016949;28;20324;-67
2023/04/03 02:42:12;;;;;;;6.87;1.63;;;;;;;;;;5025872;28;20186;-67
2023/04/03 02:44:38;;;;;;;8.60;1.97;;;;;;;;;;5023780;28;20198;-68
2023/04/03 02:47:04;;;;;;;5.43;1.70;;;;;;;;;;5015921;28;20272;-67
2023/04/03 02:49:29;;;;;;;7.17;1.77;;;;;;;;;;5017983;28;20239;-67
2023/04/03 02:51:55;;;;;;;5.90;1.97;;;;;;;;;;5031836;28;20503;-67
2023/04/03 02:54:21;;;;;;;7.10;1.93;;;;;;;;;;5028632;28;20201;-68
2023/04/03 02:56:47;;;;;;;7.90;1.50;;;;;;;;;;5021807;28;20221;-68
2023/04/03 02:59:12;;;;;;;7.57;2.80;;;;;;;;;;5015594;28;20236;-68
2023/04/03 03:01:38;;;;;;;3.53;1.43;;;;;;;;;;5019644;28;20712;-68
2023/04/03 03:04:03;;;;;;;4.47;1.90;;;;;;;;;;5028485;28;20287;-68
2023/04/03 03:06:29;;;;;;;10.20;2.00;;;;;;;;;;5018192;28;20730;-68
2023/04/03 03:08:54;;;;;;;6.53;1.60;;;;;;;;;;5021920;28;20226;-68
2023/04/03 03:11:20;;;;;;;6.00;2.00;;;;;;;;;;5013672;28;20197;-68
2023/04/03 03:13:46;;;;;;;5.50;2.03;;;;;;;;;;5020110;28;20192;-67
2023/04/03 03:16:11;;;;;;;7.37;1.87;;;;;;;;;;5021885;28;20650;-67
2023/04/03 03:18:37;;;;;;;8.07;1.90;;;;;;;;;;5022082;28;20215;-67
2023/04/03 03:21:03;;;;;;;10.87;1.97;;;;;;;;;;5018118;28;20201;-68
2023/04/03 03:23:31;;;;;;;4.57;1.53;;;;;;;;;;5015918;28;20642;-68
2023/04/03 03:26:06;;;;;;;7.70;1.90;;;;;;;;;;5020794;28;20198;-67
2023/04/03 03:28:32;;;;;;;8.37;1.83;;;;;;;;;;5020718;28;20198;-67
2023/04/03 03:30:58;;;;;;;8.07;2.00;;;;;;;;;;5021196;28;20245;-67
2023/04/03 03:33:23;;;;;;;5.43;1.93;;;;;;;;;;5015888;28;20194;-67
2023/04/03 03:35:49;;;;;;;6.63;2.00;;;;;;;;;;5020339;28;20200;-67
2023/04/03 03:38:15;;;;;;;3.43;1.50;;;;;;;;;;5016684;28;20206;-66
2023/04/03 03:40:40;;;;;;;3.63;1.70;;;;;;;;;;5021287;28;20194;-66
2023/04/03 03:43:06;;;;;;;4.80;1.47;;;;;;;;;;5021886;28;20186;-67
2023/04/03 03:45:31;;;;;;;4.37;1.47;;;;;;;;;;5022900;28;20293;-67
2023/04/03 03:47:57;;;;;;;4.13;1.70;;;;;;;;;;5021963;28;20570;-68
2023/04/03 03:50:22;;;;;;;7.60;1.90;;;;;;;;;;5023607;28;20193;-68
2023/04/03 03:52:47;;;;;;;3.27;1.47;;;;;;;;;;5024088;28;20237;-67
2023/04/03 03:55:13;;;;;;;4.63;1.60;;;;;;;;;;5023023;28;20201;-67
2023/04/03 03:57:38;;;;;;;7.60;2.10;;;;;;;;;;5027984;28;20673;-67
2023/04/03 04:00:04;;;;;;;7.30;2.30;;;;;;;;;;5022109;28;20300;-67
2023/04/03 04:02:30;;;;;;;4.13;1.43;;;;;;;;;;5018259;28;20697;-67
2023/04/03 04:04:55;;;;;;;4.00;1.20;;;;;;;;;;5008415;28;20214;-67
2023/04/03 04:07:21;;;;;;;7.93;1.57;;;;;;;;;;5022037;28;20598;-68
2023/04/03 04:09:46;;;;;;;10.80;1.93;;;;;;;;;;5022550;28;20772;-67
2023/04/03 04:12:11;;;;;;;6.17;1.70;;;;;;;;;;5025832;28;20229;-67
2023/04/03 04:14:37;;;;;;;5.03;1.70;;;;;;;;;;5011434;28;20206;-67
2023/04/03 04:17:02;;;;;;;7.67;2.03;;;;;;;;;;5019744;28;20658;-68
2023/04/03 04:19:28;;;;;;;3.57;1.63;;;;;;;;;;5009971;28;20499;-68
2023/04/03 04:21:54;;;;;;;6.47;1.93;;;;;;;;;;5010068;28;20202;-67
2023/04/03 04:24:19;;;;;;;5.30;1.70;;;;;;;;;;5012726;28;20198;-67
2023/04/03 04:26:45;;;;;;;7.47;1.87;;;;;;;;;;5031613;28;20263;-67
2023/04/03 04:29:10;;;;;;;6.90;1.80;;;;;;;;;;5027486;28;20233;-67
2023/04/03 04:31:36;;;;;;;2.77;1.40;;;;;;;;;;5016236;28;20178;-67
2023/04/03 04:34:01;;;;;;;5.70;1.43;;;;;;;;;;5030906;28;20537;-67
2023/04/03 04:36:26;;;;;;;4.77;1.83;;;;;;;;;;5031501;28;20256;-67
2023/04/03 04:38:55;;;;;;;5.67;1.70;;;;;;;;;;5032295;28;20201;-67
2023/04/03 04:41:22;;;;;;;4.37;1.73;;;;;;;;;;5027281;28;20380;-67
2023/04/03 04:43:48;;;;;;;6.17;1.80;;;;;;;;;;5019821;28;20194;-67
2023/04/03 04:46:14;;;;;;;3.33;1.40;;;;;;;;;;5028667;28;20194;-67
2023/04/03 04:48:40;;;;;;;5.67;1.80;;;;;;;;;;5025523;28;20192;-67
2023/04/03 04:51:06;;;;;;;4.80;1.87;;;;;;;;;;5027898;28;20194;-67
2023/04/03 04:53:31;;;;;;;7.00;1.97;;;;;;;;;;5021762;28;20186;-67
2023/04/03 04:55:57;;;;;;;8.50;1.60;;;;;;;;;;5027991;28;20201;-66
2023/04/03 04:58:22;;;;;;;7.77;1.50;;;;;;;;;;5018363;28;20206;-66
2023/04/03 05:00:48;;;;;;;6.93;1.53;;;;;;;;;;5023139;28;20225;-66
2023/04/03 05:03:13;;;;;;;12.53;2.10;;;;;;;;;;5025982;28;20205;-66
2023/04/03 05:05:39;;;;;;;7.60;2.13;;;;;;;;;;5026473;28;20613;-67
2023/04/03 05:08:08;;;;;;;6.93;2.20;;;;;;;;;;5024056;28;20236;-67
2023/04/03 05:10:33;;;;;;;5.80;1.70;;;;;;;;;;5027880;28;20193;-66
2023/04/03 05:12:59;;;;;;;7.33;2.07;;;;;;;;;;5023650;28;21787;-67
2023/04/03 05:15:24;;;;;;;4.00;1.50;;;;;;;;;;5017443;28;20198;-67
2023/04/03 05:17:50;;;;;;;6.70;1.60;;;;;;;;;;5022540;28;20618;-68
2023/04/03 05:20:16;;;;;;;4.60;2.03;;;;;;;;;;5022318;28;20195;-67
2023/04/03 05:22:41;;;;;;;5.47;1.93;;;;;;;;;;5021889;28;20613;-67
2023/04/03 05:25:07;;;;;;;11.37;2.00;;;;;;;;;;5020293;28;20241;-68
2023/04/03 05:27:33;;;;;;;9.17;2.07;;;;;;;;;;5026562;28;20728;-66
2023/04/03 05:29:59;;;;;;;5.00;1.57;;;;;;;;;;5030643;28;20237;-68
2023/04/03 05:32:27;;;;;;;6.70;1.87;;;;;;;;;;5024179;28;20657;-68
2023/04/03 05:34:53;;;;;;;6.47;1.80;;;;;;;;;;5020802;28;20269;-67
2023/04/03 05:37:18;;;;;;;5.33;1.80;;;;;;;;;;5018667;28;20617;-67
2023/04/03 05:39:43;;;;;;;7.13;1.97;;;;;;;;;;5026893;28;20190;-66
2023/04/03 05:42:11;;;;;;;5.63;1.73;;;;;;;;;;5026836;28;20201;-68
2023/04/03 05:44:36;;;;;;;6.80;1.80;;;;;;;;;;5013025;28;20654;-67
2023/04/03 05:47:02;;;;;;;7.03;1.67;;;;;;;;;;5017217;28;20192;-67
2023/04/03 05:49:27;;;;;;;4.07;1.60;;;;;;;;;;5014829;28;20202;-67
2023/04/03 05:51:53;;;;;;;5.70;1.87;;;;;;;;;;5021440;28;20502;-67
2023/04/03 05:54:23;;;;;;;2.83;1.30;;;;;;;;;;5016190;28;20494;-67
2023/04/03 05:56:49;;;;;;;6.67;1.87;;;;;;;;;;5013670;28;20198;-69
2023/04/03 05:59:15;;;;;;;10.07;2.23;;;;;;;;;;5019829;28;20406;-68
2023/04/03 06:01:40;;;;;;;6.33;1.77;;;;;;;;;;5013221;28;20655;-68
2023/04/03 06:04:08;;;;;;;7.80;1.97;;;;;;;;;;5024491;28;20201;-68
2023/04/03 06:06:44;;;;;;;6.40;1.93;;;;;;;;;;5013719;28;20282;-67
2023/04/03 06:09:09;;;;;;;8.17;1.77;;;;;;;;;;5025915;28;20628;-67
2023/04/03 06:11:35;;;;;;;6.23;1.13;;;;;;;;;;5027376;28;20198;-68
2023/04/03 06:14:01;;;;;;;5.40;1.70;;;;;;;;;;5025558;28;20454;-68
2023/04/03 06:16:26;;;;;;;6.60;1.70;;;;;;;;;;5014968;28;20251;-68
2023/04/03 06:18:51;;;;;;;4.37;1.33;;;;;;;;;;5027673;28;20213;-67
2023/04/03 06:21:17;;;;;;;3.93;1.20;;;;;;;;;;5027122;28;20277;-67
2023/04/03 06:23:42;;;;;;;3.80;1.37;;;;;;;;;;5017853;28;20186;-67
2023/04/03 06:26:08;;;;;;;4.10;1.30;;;;;;;;;;5019021;28;20269;-67
2023/04/03 06:28:33;;;;;;;4.90;1.47;;;;;;;;;;5020653;28;20190;-67
2023/04/03 06:30:58;;;;;;;3.20;1.70;;;;;;;;;;5025920;28;20186;-67
2023/04/03 06:33:24;;;;;;;5.40;1.60;;;;;;;;;;5020619;28;20710;-67
2023/04/03 06:35:49;;;;;;;5.57;1.30;;;;;;;;;;5023769;28;20214;-68
2023/04/03 06:38:15;;;;;;;4.33;1.17;;;;;;;;;;5026019;28;20218;-68
2023/04/03 06:40:40;;;;;;;7.27;1.77;;;;;;;;;;5025825;28;20251;-67
2023/04/03 06:43:05;;;;;;;8.60;1.27;;;;;;;;;;5020549;28;20195;-67
2023/04/03 06:45:31;;;;;;;5.17;1.40;;;;;;;;;;5020069;28;20678;-67
2023/04/03 06:47:56;;;;;;;5.63;1.60;;;;;;;;;;5024594;28;20194;-67
2023/04/03 06:50:22;;;;;;;5.30;1.33;;;;;;;;;;5029174;28;20201;-69
2023/04/03 06:52:47;;;;;;;6.57;1.70;;;;;;;;;;5039567;28;20201;-67
2023/04/03 06:55:12;;;;;;;7.10;1.70;;;;;;;;;;5018820;28;20588;-67
2023/04/03 06:57:38;;;;;;;7.73;1.50;;;;;;;;;;5022429;28;20214;-67
2023/04/03 07:00:05;;;;;;;7.70;1.53;;;;;;;;;;5027362;28;20685;-67
2023/04/03 07:02:31;;;;;;;6.70;1.40;;;;;;;;;;5026932;28;20190;-67
2023/04/03 07:04:56;;;;;;;5.83;1.33;;;;;;;;;;5023143;28;20278;-67
2023/04/03 07:07:22;;;;;;;6.03;1.17;;;;;;;;;;5022383;28;20190;-67
2023/04/03 07:09:47;;;;;;;2.47;0.90;;;;;;;;;;5024870;28;20230;-67
2023/04/03 07:12:13;;;;;;;5.53;1.40;;;;;;;;;;5023622;28;20190;-67
2023/04/03 07:14:39;;;;;;;4.60;1.37;;;;;;;;;;5027850;28;20211;-67
2023/04/03 07:17:04;;;;;;;3.83;1.20;;;;;;;;;;5012506;28;20317;-67
2023/04/03 07:19:31;;;;;;;5.73;1.00;;;;;;;;;;5013352;28;20191;-67
2023/04/03 07:21:56;;;;;;;3.03;1.30;;;;;;;;;;5008564;28;20190;-67
2023/04/03 07:24:21;;;;;;;8.50;1.93;;;;;;;;;;5021024;28;20709;-67
2023/04/03 07:26:51;;;;;;;7.70;1.50;;;;;;;;;;5012506;28;20504;-67
2023/04/03 07:29:17;;;;;;;9.27;1.33;;;;;;;;;;5012247;28;20273;-67
2023/04/03 07:31:44;;;;;;;3.07;1.40;;;;;;;;;;5020587;28;20609;-67
2023/04/03 07:34:10;;;;;;;3.93;1.00;;;;;;;;;;5014911;28;20201;-67
2023/04/03 07:36:36;;;;;;;3.30;0.97;;;;;;;;;;5026803;28;20281;-67
2023/04/03 07:39:01;;;;;;;6.40;1.20;;;;;;;;;;5012444;28;20691;-67
2023/04/03 07:41:28;;;;;;;3.97;1.17;;;;;;;;;;5011827;28;20405;-67
2023/04/03 07:43:54;;;;;;;8.00;1.30;;;;;;;;;;5018207;28;20189;-67
2023/04/03 07:46:20;;;;;;;5.00;1.47;;;;;;;;;;5017540;28;20241;-67
2023/04/03 07:48:46;;;;;;;4.87;1.00;;;;;;;;;;5009376;28;20702;-67
2023/04/03 07:51:12;;;;;;;4.77;1.30;;;;;;;;;;5016093;28;20218;-67
2023/04/03 07:53:38;;;;;;;3.20;0.90;;;;;;;;;;5015734;28;20218;-67
2023/04/03 07:56:03;;;;;;;3.87;0.70;;;;;;;;;;5024014;28;20228;-67
2023/04/03 07:58:29;;;;;;;4.07;1.20;;;;;;;;;;5012165;28;20217;-68
2023/04/03 08:00:55;;;;;;;2.33;0.80;;;;;;;;;;5008440;28;20221;-67
2023/04/03 08:03:20;;;;;;;2.83;0.70;;;;;;;;;;5014599;28;20473;-67
2023/04/03 08:05:48;;;;;;;3.77;1.00;;;;;;;;;;5013918;28;20199;-67
2023/04/03 08:08:16;;;;;;;4.97;0.70;;;;;;;;;;5012779;28;20221;-67
2023/04/03 08:10:41;;;;;;;2.47;0.60;;;;;;;;;;5007943;28;20194;-67
2023/04/03 08:13:08;;;;;;;3.57;0.83;;;;;;;;;;5010325;28;20191;-67
2023/04/03 08:15:33;;;;;;;2.00;0.60;;;;;;;;;;5011336;28;20195;-67
2023/04/03 08:18:00;;;;;;;2.33;0.57;;;;;;;;;;5014343;28;20214;-67
2023/04/03 08:20:26;;;;;;;5.77;0.90;;;;;;;;;;5020851;28;20317;-68
2023/04/03 08:22:52;;;;;;;1.37;0.50;;;;;;;;;;5011615;28;20212;-67
2023/04/03 08:25:17;;;;;;;5.17;0.90;;;;;;;;;;5017877;28;20669;-67
2023/04/03 08:27:43;;;;;;;5.43;0.70;;;;;;;;;;5027572;28;20550;-67
2023/04/03 08:30:10;;;;;;;2.90;0.67;;;;;;;;;;5023012;28;20589;-67
2023/04/03 08:32:36;;;;;;;3.13;0.80;;;;;;;;;;5014941;28;20249;-67
2023/04/03 08:35:04;;;;;;;3.73;0.60;;;;;;;;;;5013734;28;20574;-67
2023/04/03 08:37:30;;;;;;;3.73;0.63;;;;;;;;;;5022420;28;20201;-68
2023/04/03 08:39:55;;;;;;;1.63;0.50;;;;;;;;;;5021452;28;20183;-67
2023/04/03 08:42:58;;;;;;;4.00;0.63;;;;;;;;;;5008142;28;20265;-67
2023/04/03 08:45:45;;;;;;;2.97;0.80;;;;;;;;;;5026315;28;20190;-67
2023/04/03 08:48:23;;;;;;;2.30;0.57;;;;;;;;;;5018689;28;20194;-67
2023/04/03 08:50:53;;;;;;;1.97;0.50;;;;;;;;;;5018687;28;20185;-67
2023/04/03 08:53:22;;;;;;;2.37;0.80;;;;;;;;;;5024764;28;20718;-68
2023/04/03 08:55:50;;;;;;;2.40;0.80;;;;;;;;;;5006797;28;20183;-69
2023/04/03 08:58:24;;;;;;;1.57;0.40;;;;;;;;;;5019600;28;20213;-68
2023/04/03 09:01:17;;;;;;;2.47;0.47;;;;;;;;;;5016314;28;20238;-68
2023/04/03 09:03:43;;;;;;;1.73;0.40;;;;;;;;;;5020454;28;20237;-68
2023/04/03 09:06:15;;;;;;;2.97;0.73;;;;;;;;;;5008504;28;20198;-68
2023/04/03 09:08:51;;;;;;;3.33;0.67;;;;;;;;;;5010090;28;20187;-68
2023/04/03 09:11:28;;;;;;;3.13;0.40;;;;;;;;;;5021841;28;20197;-68
2023/04/03 09:14:34;;;;;;;2.87;0.40;;;;;;;;;;5012899;28;20237;-68
2023/04/03 09:17:10;;;;;;;1.70;0.33;;;;;;;;;;5012611;28;20242;-68
2023/04/03 09:19:43;;;;;;;2.83;0.57;;;;;;;;;;5015352;28;20190;-68
2023/04/03 09:22:15;;;;;;;3.67;0.70;;;;;;;;;;5011541;28;20662;-68
2023/04/03 09:24:43;;;;;;;2.37;0.40;;;;;;;;;;5014448;28;20705;-68
2023/04/03 09:27:11;;;;;;;1.17;0.30;;;;;;;;;;5025516;28;20191;-68
2023/04/03 09:29:42;;;;;;;1.70;0.50;;;;;;;;;;5017146;28;20226;-68
2023/04/03 09:32:30;;;;;;;1.43;0.40;;;;;;;;;;5018163;28;20253;-68
2023/04/03 09:35:10;;;;;;;3.00;0.50;;;;;;;;;;5018289;28;20187;-69
2023/04/03 09:37:45;;;;;;;2.67;0.50;;;;;;;;;;5021880;28;20582;-66
2023/04/03 09:40:28;;;;;;;1.57;0.40;;;;;;;;;;5010113;28;20277;-67
2023/04/03 09:42:58;;;;;;;3.20;0.63;;;;;;;;;;5020800;28;20509;-67
2023/04/03 09:45:32;;;;;;;1.77;0.50;;;;;;;;;;5013222;28;20281;-67
2023/04/03 09:48:15;;;;;;;1.50;0.50;;;;;;;;;;5012703;28;20530;-67
2023/04/03 09:50:50;;;;;;;3.05;0.60;;;;;;;;;;5020783;28;20194;-67
2023/04/03 09:53:32;;;;;;;2.22;0.50;;;;;;;;;;5015456;28;20244;-68
2023/04/03 09:56:00;;;;;;;1.73;0.40;;;;;;;;;;5015214;28;20550;-67
2023/04/03 09:58:37;;;;;;;2.43;0.50;;;;;;;;;;5023069;28;20213;-67
2023/04/03 10:01:03;;;;;;;2.17;0.40;;;;;;;;;;5015616;28;20207;-67
2023/04/03 10:03:32;;;;;;;1.87;0.50;;;;;;;;;;5019371;28;20665;-67
2023/04/03 10:05:59;;;;;;;1.60;0.60;;;;;;;;;;5021433;28;20949;-67
2023/04/03 10:08:30;;;;;;;1.75;0.35;;;;;;;;;;5014634;28;20283;-66
2023/04/03 10:11:18;;;;;;;2.80;0.30;;;;;;;;;;5011503;28;20191;-66
2023/04/03 10:14:00;;;;;;;2.15;0.50;;;;;;;;;;5024869;28;20221;-66
2023/04/03 10:16:33;;;;;;;2.50;0.50;;;;;;;;;;5015732;28;20182;-67
2023/04/03 10:19:45;;;;;;;2.67;0.50;;;;;;;;;;5021956;28;20275;-66
2023/04/03 10:22:29;;;;;;;3.45;0.68;;;;;;;;;;4984897;28;20217;-67
2023/04/03 10:25:14;;;;;;;1.45;0.50;;;;;;;;;;5017034;28;20191;-67
2023/04/03 10:27:43;;;;;;;1.60;0.40;;;;;;;;;;5024301;28;20642;-68
2023/04/03 10:30:28;;;;;;;1.17;0.43;;;;;;;;;;5021853;28;20218;-68
2023/04/03 10:33:31;;;;;;;1.88;0.65;;;;;;;;;;5010231;28;20538;-68
2023/04/03 10:36:36;;;;;;;1.88;0.40;;;;;;;;;;5009682;28;20190;-66
2023/04/03 10:39:32;;;;;;;2.60;0.50;;;;;;;;;;5015926;28;20269;-66
2023/04/03 10:42:22;;;;;;;1.13;0.40;;;;;;;;;;5013607;28;20208;-66
2023/04/03 10:44:56;;;;;;;1.23;0.28;;;;;;;;;;5022807;28;20206;-68
2023/04/03 10:47:28;;;;;;;0.47;0.30;;;;;;;;;;5008521;28;20182;-67
2023/04/03 10:50:10;;;;;;;1.55;0.43;;;;;;;;;;5019491;28;20293;-67
2023/04/03 10:52:47;;;;;;;2.65;0.65;;;;;;;;;;5016996;28;20327;-67
2023/04/03 10:55:12;;;;;;;1.75;0.70;;;;;;;;;;5018478;28;20220;-66
2023/04/03 10:57:40;;;;;;;2.60;0.68;;;;;;;;;;5009971;28;20249;-68
2023/04/03 11:00:25;;;;;;;3.80;0.80;;;;;;;;;;5012301;28;20222;-67
2023/04/03 11:02:56;;;;;;;2.17;0.50;;;;;;;;;;5018291;28;20194;-68
2023/04/03 11:05:32;;;;;;;4.32;0.77;;;;;;;;;;5021632;28;20265;-67
2023/04/03 11:08:04;;;;;;;2.42;0.70;;;;;;;;;;5009084;28;20195;-67
2023/04/03 11:10:41;;;;;;;1.17;0.70;;;;;;;;;;5013248;28;20196;-68
2023/04/03 11:13:13;;;;;;;2.97;0.70;;;;;;;;;;5017023;28;20193;-67
2023/04/03 11:15:38;;;;;;;2.53;0.60;;;;;;;;;;5014034;28;20565;-67
2023/04/03 11:18:13;;;;;;;2.40;0.60;;;;;;;;;;5020624;28;20211;-68
2023/04/03 11:20:45;;;;;;;3.13;0.50;;;;;;;;;;5024640;28;20189;-67
2023/04/03 11:23:31;;;;;;;1.30;0.40;;;;;;;;;;5018965;28;20198;-68
2023/04/03 11:26:14;;;;;;;1.30;0.55;;;;;;;;;;5025474;28;20284;-68
2023/04/03 11:28:41;;;;;;;3.50;0.80;;;;;;;;;;5018751;28;20237;-68
2023/04/03 11:31:32;;;;;;;4.03;0.60;;;;;;;;;;5022500;28;20240;-69
2023/04/03 11:34:40;;;;;;;1.38;0.50;;;;;;;;;;5017784;28;20194;-70
2023/04/03 11:37:33;;;;;;;2.33;0.77;;;;;;;;;;5005484;28;20218;-68
2023/04/03 11:40:04;;;;;;;1.30;0.60;;;;;;;;;;5027736;28;20206;-68
2023/04/03 11:42:38;;;;;;;2.40;0.68;;;;;;;;;;5025862;28;20734;-68
2023/04/03 11:45:33;;;;;;;3.58;0.75;;;;;;;;;;5020905;28;20245;-67
2023/04/03 11:48:01;;;;;;;4.72;0.70;;;;;;;;;;5016115;28;20548;-67
2023/04/03 11:50:41;;;;;;;2.05;0.70;;;;;;;;;;5017219;28;20209;-67
2023/04/03 11:53:06;;;;;;;3.42;0.80;;;;;;;;;;5010349;28;20190;-68
2023/04/03 11:55:32;;;;;;;4.18;1.08;;;;;;;;;;5019813;28;20201;-68
2023/04/03 11:57:57;;;;;;;1.13;0.60;;;;;;;;;;5009302;28;20272;-67
2023/04/03 12:00:49;;;;;;;2.70;0.70;;;;;;;;;;5010623;28;20289;-68
2023/04/03 12:03:26;;;;;;;3.83;0.88;;;;;;;;;;5021389;28;20198;-68
2023/04/03 12:06:05;;;;;;;3.00;0.77;;;;;;;;;;5015397;28;20214;-68
2023/04/03 12:08:40;;;;;;;2.90;0.88;;;;;;;;;;5022746;28;20193;-69
2023/04/03 12:11:08;;;;;;;3.92;0.70;;;;;;;;;;5018078;28;20262;-67
2023/04/03 12:13:53;;;;;;;2.65;0.88;;;;;;;;;;5020711;28;20293;-67
2023/04/03 12:16:22;;;;;;;2.78;1.00;;;;;;;;;;5023701;28;20210;-68
2023/04/03 12:18:52;;;;;;;1.75;0.50;;;;;;;;;;5018688;28;20816;-68
2023/04/03 12:21:49;;;;;;;1.77;0.80;;;;;;;;;;5010489;28;20270;-69
2023/04/03 12:24:17;;;;;;;3.20;0.70;;;;;;;;;;5018291;28;20653;-67
2023/04/03 12:26:50;;;;;;;3.10;0.65;;;;;;;;;;5011448;28;20285;-68
2023/04/03 12:29:32;;;;;;;2.65;0.90;;;;;;;;;;5015826;28;20218;-68
2023/04/03 12:32:03;;;;;;;2.75;0.77;;;;;;;;;;5018118;28;20289;-68
2023/04/03 12:34:40;;;;;;;4.95;1.27;;;;;;;;;;5015641;28;20206;-68
2023/04/03 12:37:44;;;;;;;2.35;0.75;;;;;;;;;;5023333;28;20197;-68
2023/04/03 12:40:31;;;;;;;4.13;0.70;;;;;;;;;;5022935;28;20213;-69
2023/04/03 12:43:17;;;;;;;3.50;0.90;;;;;;;;;;5021571;28;20186;-68
2023/04/03 12:45:51;;;;;;;1.48;0.60;;;;;;;;;;5023133;28;20197;-68
2023/04/03 12:48:25;;;;;;;2.25;0.80;;;;;;;;;;5024656;28;20206;-69
2023/04/03 12:50:51;;;;;;;6.20;1.10;;;;;;;;;;5020888;28;20750;-68
2023/04/03 12:53:21;;;;;;;2.10;0.50;;;;;;;;;;5021461;28;20650;-68
2023/04/03 12:55:46;;;;;;;3.47;0.80;;;;;;;;;;5019765;28;20228;-68
2023/04/03 12:58:27;;;;;;;3.45;0.82;;;;;;;;;;5016963;28;20229;-68
2023/04/03 13:01:09;;;;;;;2.97;0.80;;;;;;;;;;5024522;28;20206;-68
2023/04/03 13:03:37;;;;;;;2.30;0.90;;;;;;;;;;5027557;28;20526;-68
2023/04/03 13:06:04;;;;;;;2.67;0.90;;;;;;;;;;5019913;28;20198;-67
2023/04/03 13:08:30;;;;;;;1.33;0.63;;;;;;;;;;5022704;28;20454;-69
2023/04/03 13:11:23;;;;;;;3.38;0.93;;;;;;;;;;5028895;28;20183;-67
2023/04/03 13:13:56;;;;;;;2.35;0.80;;;;;;;;;;5007561;28;20218;-69
2023/04/03 13:16:22;;;;;;;2.78;0.90;;;;;;;;;;5025012;28;20201;-68
2023/04/03 13:18:52;;;;;;;4.20;1.27;;;;;;;;;;5038607;28;20209;-70
2023/04/03 13:21:21;;;;;;;3.75;1.02;;;;;;;;;;5027711;28;20190;-68
2023/04/03 13:23:49;;;;;;;3.85;1.38;;;;;;;;;;5019912;28;20281;-68
2023/04/03 13:26:17;;;;;;;2.35;0.95;;;;;;;;;;5023537;28;20272;-68
2023/04/03 13:28:44;;;;;;;2.38;0.70;;;;;;;;;;5029068;28;20182;-68
2023/04/03 13:31:17;;;;;;;2.05;1.02;;;;;;;;;;5027020;28;20197;-68
2023/04/03 13:34:02;;;;;;;5.63;1.00;;;;;;;;;;5015984;28;20199;-69
2023/04/03 13:36:34;;;;;;;3.55;0.95;;;;;;;;;;5026643;28;20193;-68
2023/04/03 13:39:17;;;;;;;2.47;0.80;;;;;;;;;;5024425;28;20739;-69
2023/04/03 13:41:49;;;;;;;1.75;0.63;;;;;;;;;;5028108;28;20569;-68
2023/04/03 13:44:22;;;;;;;2.45;0.85;;;;;;;;;;5025403;28;20186;-68
2023/04/03 13:47:21;;;;;;;2.72;0.70;;;;;;;;;;5029646;28;20194;-68
2023/04/03 13:50:13;;;;;;;1.50;0.80;;;;;;;;;;5001560;28;20544;-69
2023/04/03 13:53:03;;;;;;;1.58;0.60;;;;;;;;;;5030557;28;20634;-67
2023/04/03 13:55:34;;;;;;;3.17;0.75;;;;;;;;;;5028251;28;20201;-68
2023/04/03 13:58:20;;;;;;;1.75;0.80;;;;;;;;;;5015448;28;20217;-68
2023/04/03 14:01:05;;;;;;;3.25;0.90;;;;;;;;;;5021445;28;20214;-68
2023/04/03 14:03:44;;;;;;;2.90;1.00;;;;;;;;;;5022485;28;20182;-68
2023/04/03 14:06:13;;;;;;;2.88;0.77;;;;;;;;;;5030098;28;20193;-68
2023/04/03 14:08:39;;;;;;;3.65;0.80;;;;;;;;;;5031188;28;20475;-68
2023/04/03 14:11:05;;;;;;;1.88;0.80;;;;;;;;;;5016731;28;20530;-68
2023/04/03 14:13:31;;;;;;;2.78;0.80;;;;;;;;;;5011207;28;20191;-68
2023/04/03 14:15:56;;;;;;;2.20;0.90;;;;;;;;;;5026464;28;20182;-67
2023/04/03 14:18:22;;;;;;;4.03;0.80;;;;;;;;;;5013273;28;20333;-67
2023/04/03 14:20:49;;;;;;;4.32;1.17;;;;;;;;;;5023870;28;20293;-69
2023/04/03 14:23:14;;;;;;;2.75;0.55;;;;;;;;;;5011544;28;20839;-67
2023/04/03 14:25:40;;;;;;;3.63;1.10;;;;;;;;;;5021945;28;20178;-67
2023/04/03 14:28:18;;;;;;;2.30;0.70;;;;;;;;;;5009475;28;20194;-70
2023/04/03 14:30:45;;;;;;;2.13;0.70;;;;;;;;;;5015401;28;20222;-68
2023/04/03 14:33:15;;;;;;;1.63;0.73;;;;;;;;;;5018041;28;20278;-68
2023/04/03 14:35:40;;;;;;;3.47;0.70;;;;;;;;;;5023553;28;20191;-67
2023/04/03 14:38:28;;;;;;;4.18;1.00;;;;;;;;;;5021028;28;20226;-68
2023/04/03 14:40:54;;;;;;;3.65;0.88;;;;;;;;;;5019284;28;20186;-69
2023/04/03 14:43:20;;;;;;;3.35;0.80;;;;;;;;;;5020355;28;20203;-67
2023/04/03 14:45:47;;;;;;;2.45;0.75;;;;;;;;;;5020112;28;20193;-67
2023/04/03 14:48:26;;;;;;;2.33;0.73;;;;;;;;;;5020354;28;20186;-67
2023/04/03 14:50:52;;;;;;;2.00;0.85;;;;;;;;;;5013816;28;20282;-67
2023/04/03 14:53:22;;;;;;;2.55;0.80;;;;;;;;;;5020738;28;20187;-67
2023/04/03 14:55:48;;;;;;;2.28;0.90;;;;;;;;;;5021041;28;20476;-68
2023/04/03 14:58:19;;;;;;;5.18;1.25;;;;;;;;;;5013423;28;20202;-68
2023/04/03 15:00:45;;;;;;;1.70;0.77;;;;;;;;;;5019065;28;20573;-67